11XS weather

Speed Shore Company Headquarters Heliport
Pearland, Texas, United States

Public forecast

Using degrees Fahrenheit for public forecast. Weather courtesy of forecast.io.

METAR (pilot weather report)

Closest report is William P Hobby Airport, 5.5 nm (10.3 km) ENE. Retrieved 2019/09/23 09:53 UTC (45 minutes ago):

KHOU 230953Z 11003KT 10SM FEW016 26/24 A2999 RMK AO2 SLP158 T02610239

TAF (pilot weather forecast)

Closest forecast is William P Hobby Airport, 5.5 nm (10.3 km) ENE. Retrieved 2019/09/23 06:22 UTC (4 hours ago):

TAF KHOU 230520Z 2306/2406 13006KT P6SM FEW015 SCT250 FM231600 16006KT P6SM VCSH SCT020 BKN035 TEMPO 2316/2320 TSRA BKN030CB FM232100 15008KT P6SM VCSH SCT030 BKN250 FM240100 14004KT P6SM SCT020 BKN250